Perry Municipal Airport
Tuesday 11:15 AM
Weather Sunny
Temperature 75°
Dew Point 61°
Feels Like
Relative Humidity 61
%
Visibility 10
mi
Pressure 1013.5
mb
Wind Direction E
Wind Speed 9
mph
Last Hour Precip 0.00
"
KPRO 281615Z AUTO 10008KT 10SM CLR 24/16 A2993 RMK AO2 T02410162

Recent Observations

Time Present Weather Temp DP Feels RH% Vsby Pressure Ceiling Direction Speed Gust 1h Precip
11:15AM
VFR
75° 61° 61
%
10
mi
1013.5
mb
None E 9
mph
0.00"
KPRO 281615Z AUTO 10008KT 10SM CLR 24/16 A2993 RMK AO2 T02410162
10:55AM
VFR
74° 61° 65
%
10
mi
1013.5
mb
None ESE 8
mph
0.00"
KPRO 281555Z AUTO 11007KT 10SM CLR 23/16 A2993 RMK AO2 T02310161
10:35AM
VFR
72° 61° 69
%
10
mi
1013.5
mb
None E 8
mph
0.00"
KPRO 281535Z AUTO 10007KT 10SM CLR 22/16 A2993 RMK AO2 T02230163
10:15AM
VFR
70° 61° 73
%
10
mi
1013.5
mb
None E 9
mph
0.00"
KPRO 281515Z AUTO 10008KT 10SM CLR 21/16 A2993 RMK AO2 T02110161
9:55AM
VFR
68° 61° 79
%
10
mi
1013.5
mb
None ESE 9
mph
0.00"
KPRO 281455Z AUTO 11008KT 10SM CLR 20/16 A2993 RMK AO2 T02000162
9:35AM
VFR
66° 61° 84
%
10
mi
1013.5
mb
None ESE 10
mph
0.00"
KPRO 281435Z AUTO 11009KT 10SM CLR 19/16 A2993 RMK AO2 T01900163
9:15AM
VFR
65° 62° 89
%
10
mi
1013.5
mb
None E 10
mph
0.00"
KPRO 281415Z AUTO 10009KT 10SM CLR 18/16 A2993 RMK AO2 T01820164
8:55AM
VFR
64° 61° 92
%
10
mi
1013.2
mb
None ESE 8
mph
0.00"
KPRO 281355Z AUTO 11007KT 10SM CLR 18/16 A2992 RMK AO2 T01750162
8:35AM
VFR
62° 61° 97
%
10
mi
1013.2
mb
None E 9
mph
0.00"
KPRO 281335Z AUTO 08008KT 10SM CLR 17/16 A2992 RMK AO2 T01660161
8:15AM
VFR
60° 60° 100
%
10
mi
1013.2
mb
None E 6
mph
0.00"
KPRO 281315Z AUTO 09005KT 10SM CLR 15/15 A2992 RMK AO2 T01540154
7:55AM
VFR
59° 59° 100
%
10
mi
1013.5
mb
None SSE 3
mph
0.00"
KPRO 281255Z AUTO 15003KT 10SM CLR 15/15 A2993 RMK AO2 T01480148
7:35AM
VFR
59° 59° 100
%
10
mi
1013.2
mb
None ESE 6
mph
0.00"
KPRO 281235Z AUTO 11005KT 10SM CLR 15/15 A2992 RMK AO2 T01500150
7:15AM
VFR
60° 60° 100
%
10
mi
1012.9
mb
None E 7
mph
0.00"
KPRO 281215Z AUTO 10006KT 10SM CLR 16/16 A2991 RMK AO2 T01550155
6:55AM
VFR
60° 60° 99
%
10
mi
1012.9
mb
None E 7
mph
0.00"
KPRO 281155Z AUTO 08006KT 10SM CLR 16/15 A2991 RMK AO2 T01550154 10160 20120
6:35AM
VFR
59° 59° 100
%
10
mi
1012.9
mb
None E 7
mph
0.00"
KPRO 281135Z AUTO 08006KT 10SM CLR 15/15 A2991 RMK AO2 T01520152
6:15AM
VFR
59° 58° 99
%
10
mi
1012.9
mb
None E 6
mph
0.00"
KPRO 281115Z AUTO 09005KT 10SM CLR 15/15 A2991 RMK AO2 T01470145
5:55AM
VFR
59° 59° 98
%
10
mi
1012.9
mb
None E 5
mph
0.00"
KPRO 281055Z AUTO 08004KT 10SM CLR 15/15 A2991 RMK AO2 T01510147
5:35AM
VFR
59° 58° 98
%
10
mi
1012.5
mb
None E 5
mph
0.00"
KPRO 281035Z AUTO 08004KT 10SM CLR 15/15 A2990 RMK AO2 T01500146
5:15AM
VFR
54° 54° 100
%
10
mi
1012.5
mb
None E 5
mph
0.00"
KPRO 281015Z AUTO 08004KT 10SM CLR 12/12 A2990 RMK AO2 T01240124
4:55AM
VFR
54° 54° 99
%
10
mi
1012.5
mb
None Calm 0.00"
KPRO 280955Z AUTO 00000KT 10SM CLR 12/12 A2990 RMK AO2 T01240123
Click here to show this page without METARs/TAFs included